sensor_id;sensor_type;location;lat;lon;timestamp;P1;durP1;ratioP1;P2;durP2;ratioP2
3791;SDS011;1911;53.768;11.474;2022-08-01T00:01:14;17.43;;;14.43;;
3791;SDS011;1911;53.768;11.474;2022-08-01T00:03:40;17.10;;;15.50;;
3791;SDS011;1911;53.768;11.474;2022-08-01T00:06:06;17.13;;;15.30;;
3791;SDS011;1911;53.768;11.474;2022-08-01T00:08:31;17.67;;;15.97;;
3791;SDS011;1911;53.768;11.474;2022-08-01T00:10:57;17.10;;;15.30;;
3791;SDS011;1911;53.768;11.474;2022-08-01T00:13:23;18.27;;;16.33;;
3791;SDS011;1911;53.768;11.474;2022-08-01T00:15:48;17.93;;;16.10;;
3791;SDS011;1911;53.768;11.474;2022-08-01T00:18:14;19.03;;;15.37;;
3791;SDS011;1911;53.768;11.474;2022-08-01T00:20:40;16.43;;;14.90;;
3791;SDS011;1911;53.768;11.474;2022-08-01T00:23:06;18.07;;;16.17;;
3791;SDS011;1911;53.768;11.474;2022-08-01T00:25:31;18.37;;;16.07;;
3791;SDS011;1911;53.768;11.474;2022-08-01T00:27:57;17.90;;;16.10;;
3791;SDS011;1911;53.768;11.474;2022-08-01T00:30:22;21.07;;;14.90;;
3791;SDS011;1911;53.768;11.474;2022-08-01T00:32:48;13.40;;;12.10;;
3791;SDS011;1911;53.768;11.474;2022-08-01T00:35:14;12.00;;;10.80;;
3791;SDS011;1911;53.768;11.474;2022-08-01T00:37:40;10.57;;;9.47;;
3791;SDS011;1911;53.768;11.474;2022-08-01T00:40:06;10.50;;;9.40;;
3791;SDS011;1911;53.768;11.474;2022-08-01T00:42:32;10.83;;;9.83;;
3791;SDS011;1911;53.768;11.474;2022-08-01T00:44:58;12.00;;;9.40;;
3791;SDS011;1911;53.768;11.474;2022-08-01T00:47:23;9.33;;;8.53;;
3791;SDS011;1911;53.768;11.474;2022-08-01T00:49:49;10.77;;;9.67;;
3791;SDS011;1911;53.768;11.474;2022-08-01T00:52:15;11.77;;;10.60;;
3791;SDS011;1911;53.768;11.474;2022-08-01T00:54:41;12.60;;;11.27;;
3791;SDS011;1911;53.768;11.474;2022-08-01T00:57:07;11.20;;;10.07;;
3791;SDS011;1911;53.768;11.474;2022-08-01T00:59:43;10.43;;;9.43;;
3791;SDS011;1911;53.768;11.474;2022-08-01T01:19:08;8.80;;;8.00;;
3791;SDS011;1911;53.768;11.474;2022-08-01T01:29:44;7.13;;;6.30;;
3791;SDS011;1911;53.768;11.474;2022-08-01T01:32:50;9.30;;;7.33;;
3791;SDS011;1911;53.768;11.474;2022-08-01T01:35:17;8.47;;;7.60;;
3791;SDS011;1911;53.768;11.474;2022-08-01T01:37:47;9.20;;;8.30;;
3791;SDS011;1911;53.768;11.474;2022-08-01T01:40:18;13.00;;;8.93;;
3791;SDS011;1911;53.768;11.474;2022-08-01T01:42:45;9.37;;;8.30;;
3791;SDS011;1911;53.768;11.474;2022-08-01T01:45:13;9.87;;;8.80;;
3791;SDS011;1911;53.768;11.474;2022-08-01T01:47:40;10.80;;;9.50;;
3791;SDS011;1911;53.768;11.474;2022-08-01T01:50:07;10.50;;;8.93;;
3791;SDS011;1911;53.768;11.474;2022-08-01T01:52:53;10.53;;;9.40;;
3791;SDS011;1911;53.768;11.474;2022-08-01T01:55:21;9.60;;;8.60;;
3791;SDS011;1911;53.768;11.474;2022-08-01T01:57:48;10.27;;;9.17;;
3791;SDS011;1911;53.768;11.474;2022-08-01T02:00:16;12.80;;;8.90;;
3791;SDS011;1911;53.768;11.474;2022-08-01T02:02:43;12.10;;;9.27;;
3791;SDS011;1911;53.768;11.474;2022-08-01T02:05:11;10.83;;;8.90;;
3791;SDS011;1911;53.768;11.474;2022-08-01T02:07:38;13.83;;;10.47;;
3791;SDS011;1911;53.768;11.474;2022-08-01T02:10:06;10.03;;;9.00;;
3791;SDS011;1911;53.768;11.474;2022-08-01T02:12:35;13.93;;;10.10;;
3791;SDS011;1911;53.768;11.474;2022-08-01T02:15:03;15.00;;;10.07;;
3791;SDS011;1911;53.768;11.474;2022-08-01T02:17:30;11.67;;;10.10;;
3791;SDS011;1911;53.768;11.474;2022-08-01T02:19:57;13.03;;;9.63;;
3791;SDS011;1911;53.768;11.474;2022-08-01T02:22:27;11.53;;;10.33;;
3791;SDS011;1911;53.768;11.474;2022-08-01T02:27:25;15.00;;;10.10;;
3791;SDS011;1911;53.768;11.474;2022-08-01T02:30:04;17.17;;;10.60;;
3791;SDS011;1911;53.768;11.474;2022-08-01T02:32:36;14.43;;;11.30;;
3791;SDS011;1911;53.768;11.474;2022-08-01T02:35:07;13.73;;;11.63;;
3791;SDS011;1911;53.768;11.474;2022-08-01T02:37:39;18.93;;;13.73;;
3791;SDS011;1911;53.768;11.474;2022-08-01T02:40:07;17.50;;;12.93;;
3791;SDS011;1911;53.768;11.474;2022-08-01T02:42:35;19.23;;;14.40;;
3791;SDS011;1911;53.768;11.474;2022-08-01T02:45:03;17.10;;;13.53;;
3791;SDS011;1911;53.768;11.474;2022-08-01T02:47:33;23.33;;;14.63;;
3791;SDS011;1911;53.768;11.474;2022-08-01T02:50:02;16.60;;;13.60;;
3791;SDS011;1911;53.768;11.474;2022-08-01T02:52:29;22.70;;;16.60;;
3791;SDS011;1911;53.768;11.474;2022-08-01T02:54:57;20.20;;;16.23;;
3791;SDS011;1911;53.768;11.474;2022-08-01T02:57:23;19.50;;;15.80;;
3791;SDS011;1911;53.768;11.474;2022-08-01T02:59:51;27.30;;;18.07;;
3791;SDS011;1911;53.768;11.474;2022-08-01T03:02:19;22.97;;;16.17;;
3791;SDS011;1911;53.768;11.474;2022-08-01T03:04:47;23.20;;;17.00;;
3791;SDS011;1911;53.768;11.474;2022-08-01T03:07:16;26.93;;;16.70;;
3791;SDS011;1911;53.768;11.474;2022-08-01T03:09:44;21.70;;;17.50;;
3791;SDS011;1911;53.768;11.474;2022-08-01T03:12:16;21.90;;;18.70;;
3791;SDS011;1911;53.768;11.474;2022-08-01T03:14:44;23.97;;;16.63;;
3791;SDS011;1911;53.768;11.474;2022-08-01T03:17:12;25.53;;;17.57;;
3791;SDS011;1911;53.768;11.474;2022-08-01T03:19:41;24.37;;;17.77;;
3791;SDS011;1911;53.768;11.474;2022-08-01T03:22:11;22.90;;;17.47;;
3791;SDS011;1911;53.768;11.474;2022-08-01T03:24:40;24.63;;;17.80;;
3791;SDS011;1911;53.768;11.474;2022-08-01T03:27:08;24.40;;;18.33;;
3791;SDS011;1911;53.768;11.474;2022-08-01T03:29:34;21.97;;;18.03;;
3791;SDS011;1911;53.768;11.474;2022-08-01T03:32:01;22.17;;;16.50;;
3791;SDS011;1911;53.768;11.474;2022-08-01T03:34:27;24.33;;;17.90;;
3791;SDS011;1911;53.768;11.474;2022-08-01T03:42:35;23.77;;;17.43;;
3791;SDS011;1911;53.768;11.474;2022-08-01T03:45:07;30.83;;;20.70;;
3791;SDS011;1911;53.768;11.474;2022-08-01T03:47:35;29.47;;;19.80;;
3791;SDS011;1911;53.768;11.474;2022-08-01T03:50:04;28.50;;;20.20;;
3791;SDS011;1911;53.768;11.474;2022-08-01T03:52:31;27.70;;;19.30;;
3791;SDS011;1911;53.768;11.474;2022-08-01T03:54:59;28.00;;;19.37;;
3791;SDS011;1911;53.768;11.474;2022-08-01T03:57:32;25.60;;;18.80;;
3791;SDS011;1911;53.768;11.474;2022-08-01T03:59:58;24.27;;;19.13;;
3791;SDS011;1911;53.768;11.474;2022-08-01T04:02:26;25.60;;;18.77;;
3791;SDS011;1911;53.768;11.474;2022-08-01T04:04:53;24.73;;;18.63;;
3791;SDS011;1911;53.768;11.474;2022-08-01T04:07:23;28.30;;;18.70;;
3791;SDS011;1911;53.768;11.474;2022-08-01T04:09:56;30.00;;;20.23;;
3791;SDS011;1911;53.768;11.474;2022-08-01T04:12:22;24.90;;;18.83;;
3791;SDS011;1911;53.768;11.474;2022-08-01T04:14:49;27.90;;;19.07;;
3791;SDS011;1911;53.768;11.474;2022-08-01T04:17:18;25.90;;;18.73;;
3791;SDS011;1911;53.768;11.474;2022-08-01T04:19:44;26.10;;;20.10;;
3791;SDS011;1911;53.768;11.474;2022-08-01T04:22:10;29.27;;;20.27;;
3791;SDS011;1911;53.768;11.474;2022-08-01T04:24:39;33.23;;;22.77;;
3791;SDS011;1911;53.768;11.474;2022-08-01T04:27:09;32.73;;;20.40;;
3791;SDS011;1911;53.768;11.474;2022-08-01T04:29:39;33.17;;;22.50;;
3791;SDS011;1911;53.768;11.474;2022-08-01T04:32:08;28.27;;;18.97;;
3791;SDS011;1911;53.768;11.474;2022-08-01T04:34:36;29.00;;;20.00;;
3791;SDS011;1911;53.768;11.474;2022-08-01T04:37:05;22.13;;;16.23;;
3791;SDS011;1911;53.768;11.474;2022-08-01T04:39:34;28.90;;;17.80;;
3791;SDS011;1911;53.768;11.474;2022-08-01T04:42:04;30.00;;;20.33;;
3791;SDS011;1911;53.768;11.474;2022-08-01T04:44:31;26.70;;;19.73;;
3791;SDS011;1911;53.768;11.474;2022-08-01T04:47:00;36.27;;;20.20;;
3791;SDS011;1911;53.768;11.474;2022-08-01T04:49:29;26.43;;;17.97;;
3791;SDS011;1911;53.768;11.474;2022-08-01T04:51:57;28.93;;;19.07;;
3791;SDS011;1911;53.768;11.474;2022-08-01T04:54:29;28.17;;;20.37;;
3791;SDS011;1911;53.768;11.474;2022-08-01T04:56:59;26.73;;;19.17;;
3791;SDS011;1911;53.768;11.474;2022-08-01T04:59:26;36.10;;;20.23;;
3791;SDS011;1911;53.768;11.474;2022-08-01T05:02:08;29.30;;;17.77;;
3791;SDS011;1911;53.768;11.474;2022-08-01T05:04:44;27.67;;;19.40;;
3791;SDS011;1911;53.768;11.474;2022-08-01T05:07:11;30.10;;;18.07;;
3791;SDS011;1911;53.768;11.474;2022-08-01T05:09:38;21.77;;;17.40;;
3791;SDS011;1911;53.768;11.474;2022-08-01T05:12:06;25.47;;;18.03;;
3791;SDS011;1911;53.768;11.474;2022-08-01T05:14:33;23.63;;;17.43;;
3791;SDS011;1911;53.768;11.474;2022-08-01T05:17:00;26.90;;;17.97;;
3791;SDS011;1911;53.768;11.474;2022-08-01T05:19:30;27.00;;;18.70;;
3791;SDS011;1911;53.768;11.474;2022-08-01T05:21:59;26.40;;;19.33;;
3791;SDS011;1911;53.768;11.474;2022-08-01T05:24:30;25.70;;;19.13;;
3791;SDS011;1911;53.768;11.474;2022-08-01T05:26:56;33.47;;;21.00;;
3791;SDS011;1911;53.768;11.474;2022-08-01T05:29:22;25.23;;;18.23;;
3791;SDS011;1911;53.768;11.474;2022-08-01T05:31:48;25.97;;;17.37;;
3791;SDS011;1911;53.768;11.474;2022-08-01T05:34:14;28.20;;;17.53;;
3791;SDS011;1911;53.768;11.474;2022-08-01T05:36:40;22.67;;;17.43;;
3791;SDS011;1911;53.768;11.474;2022-08-01T05:39:06;22.43;;;16.00;;
3791;SDS011;1911;53.768;11.474;2022-08-01T05:41:31;22.67;;;16.87;;
3791;SDS011;1911;53.768;11.474;2022-08-01T05:43:57;25.23;;;18.13;;
3791;SDS011;1911;53.768;11.474;2022-08-01T05:46:23;18.20;;;14.07;;
3791;SDS011;1911;53.768;11.474;2022-08-01T05:48:49;25.13;;;16.20;;
3791;SDS011;1911;53.768;11.474;2022-08-01T05:51:14;22.73;;;15.53;;
3791;SDS011;1911;53.768;11.474;2022-08-01T05:53:40;20.77;;;14.57;;
3791;SDS011;1911;53.768;11.474;2022-08-01T05:56:06;21.53;;;16.67;;
3791;SDS011;1911;53.768;11.474;2022-08-01T05:58:32;21.00;;;15.60;;
3791;SDS011;1911;53.768;11.474;2022-08-01T06:00:58;18.40;;;15.93;;
3791;SDS011;1911;53.768;11.474;2022-08-01T06:03:24;17.80;;;13.20;;
3791;SDS011;1911;53.768;11.474;2022-08-01T06:05:52;22.23;;;14.97;;
3791;SDS011;1911;53.768;11.474;2022-08-01T06:08:18;21.77;;;17.10;;
3791;SDS011;1911;53.768;11.474;2022-08-01T06:10:44;23.57;;;15.47;;
3791;SDS011;1911;53.768;11.474;2022-08-01T06:13:10;18.30;;;15.10;;
3791;SDS011;1911;53.768;11.474;2022-08-01T06:15:35;17.43;;;14.80;;
3791;SDS011;1911;53.768;11.474;2022-08-01T06:18:01;18.10;;;13.97;;
3791;SDS011;1911;53.768;11.474;2022-08-01T06:20:27;23.77;;;14.33;;
3791;SDS011;1911;53.768;11.474;2022-08-01T06:22:53;16.60;;;14.30;;
3791;SDS011;1911;53.768;11.474;2022-08-01T06:25:19;21.13;;;14.30;;
3791;SDS011;1911;53.768;11.474;2022-08-01T06:27:45;23.67;;;15.47;;
3791;SDS011;1911;53.768;11.474;2022-08-01T12:00:56;4.87;;;1.80;;
3791;SDS011;1911;53.768;11.474;2022-08-01T12:03:31;3.70;;;1.77;;
3791;SDS011;1911;53.768;11.474;2022-08-01T12:09:45;6.60;;;2.37;;
3791;SDS011;1911;53.768;11.474;2022-08-01T12:12:14;6.93;;;2.93;;
3791;SDS011;1911;53.768;11.474;2022-08-01T12:14:52;4.10;;;2.17;;
3791;SDS011;1911;53.768;11.474;2022-08-01T12:20:10;3.23;;;1.87;;
3791;SDS011;1911;53.768;11.474;2022-08-01T12:22:37;7.63;;;2.40;;
3791;SDS011;1911;53.768;11.474;2022-08-01T12:25:13;6.57;;;2.10;;
3791;SDS011;1911;53.768;11.474;2022-08-01T12:27:41;6.27;;;2.40;;
3791;SDS011;1911;53.768;11.474;2022-08-01T12:30:09;4.00;;;2.47;;
3791;SDS011;1911;53.768;11.474;2022-08-01T12:32:38;6.73;;;2.30;;
3791;SDS011;1911;53.768;11.474;2022-08-01T12:35:06;6.43;;;2.53;;
3791;SDS011;1911;53.768;11.474;2022-08-01T12:37:41;6.47;;;2.50;;
3791;SDS011;1911;53.768;11.474;2022-08-01T12:40:12;7.60;;;2.63;;
3791;SDS011;1911;53.768;11.474;2022-08-01T12:42:50;7.97;;;2.47;;
3791;SDS011;1911;53.768;11.474;2022-08-01T12:45:17;5.70;;;2.30;;
3791;SDS011;1911;53.768;11.474;2022-08-01T12:47:46;7.97;;;2.20;;
3791;SDS011;1911;53.768;11.474;2022-08-01T12:50:15;4.17;;;2.10;;
3791;SDS011;1911;53.768;11.474;2022-08-01T12:52:43;5.97;;;2.53;;
3791;SDS011;1911;53.768;11.474;2022-08-01T12:55:16;6.70;;;2.13;;
3791;SDS011;1911;53.768;11.474;2022-08-01T12:57:44;4.77;;;1.73;;
3791;SDS011;1911;53.768;11.474;2022-08-01T13:02:49;6.80;;;2.20;;
3791;SDS011;1911;53.768;11.474;2022-08-01T13:05:25;6.17;;;2.60;;
3791;SDS011;1911;53.768;11.474;2022-08-01T13:07:52;10.80;;;2.90;;
3791;SDS011;1911;53.768;11.474;2022-08-01T13:10:26;5.83;;;2.27;;
3791;SDS011;1911;53.768;11.474;2022-08-01T13:12:55;6.33;;;2.20;;
3791;SDS011;1911;53.768;11.474;2022-08-01T13:15:24;6.20;;;2.00;;
3791;SDS011;1911;53.768;11.474;2022-08-01T13:17:53;4.40;;;2.10;;
3791;SDS011;1911;53.768;11.474;2022-08-01T13:20:26;3.90;;;1.80;;
3791;SDS011;1911;53.768;11.474;2022-08-01T13:22:54;4.10;;;1.90;;
3791;SDS011;1911;53.768;11.474;2022-08-01T13:25:51;4.80;;;1.80;;
3791;SDS011;1911;53.768;11.474;2022-08-01T13:28:25;5.83;;;2.30;;
3791;SDS011;1911;53.768;11.474;2022-08-01T13:31:07;9.27;;;2.20;;
3791;SDS011;1911;53.768;11.474;2022-08-01T13:37:16;5.00;;;2.20;;
3791;SDS011;1911;53.768;11.474;2022-08-01T13:39:45;6.13;;;1.97;;
3791;SDS011;1911;53.768;11.474;2022-08-01T13:42:13;5.97;;;2.40;;
3791;SDS011;1911;53.768;11.474;2022-08-01T13:44:40;4.80;;;1.70;;
3791;SDS011;1911;53.768;11.474;2022-08-01T13:47:07;3.67;;;1.77;;
3791;SDS011;1911;53.768;11.474;2022-08-01T13:49:33;3.37;;;1.97;;
3791;SDS011;1911;53.768;11.474;2022-08-01T13:52:00;4.63;;;1.80;;
3791;SDS011;1911;53.768;11.474;2022-08-01T13:54:26;6.30;;;2.50;;
3791;SDS011;1911;53.768;11.474;2022-08-01T13:56:52;6.73;;;1.87;;
3791;SDS011;1911;53.768;11.474;2022-08-01T13:59:18;8.47;;;2.60;;
3791;SDS011;1911;53.768;11.474;2022-08-01T14:01:44;6.77;;;2.23;;
3791;SDS011;1911;53.768;11.474;2022-08-01T14:04:09;5.43;;;2.40;;
3791;SDS011;1911;53.768;11.474;2022-08-01T14:06:35;6.00;;;2.23;;
3791;SDS011;1911;53.768;11.474;2022-08-01T14:09:02;7.33;;;2.10;;
3791;SDS011;1911;53.768;11.474;2022-08-01T14:11:29;7.93;;;2.67;;
3791;SDS011;1911;53.768;11.474;2022-08-01T14:13:54;7.80;;;2.93;;
3791;SDS011;1911;53.768;11.474;2022-08-01T14:16:20;12.40;;;3.03;;
3791;SDS011;1911;53.768;11.474;2022-08-01T14:18:47;6.10;;;2.10;;
3791;SDS011;1911;53.768;11.474;2022-08-01T14:21:12;6.03;;;2.70;;
3791;SDS011;1911;53.768;11.474;2022-08-01T14:23:40;8.43;;;2.60;;
3791;SDS011;1911;53.768;11.474;2022-08-01T14:26:08;15.83;;;3.20;;
3791;SDS011;1911;53.768;11.474;2022-08-01T14:28:34;9.57;;;2.97;;
3791;SDS011;1911;53.768;11.474;2022-08-01T14:31:00;7.30;;;2.80;;
3791;SDS011;1911;53.768;11.474;2022-08-01T14:33:26;9.40;;;2.67;;
3791;SDS011;1911;53.768;11.474;2022-08-01T14:35:52;10.57;;;2.80;;
3791;SDS011;1911;53.768;11.474;2022-08-01T14:38:17;12.30;;;3.10;;
3791;SDS011;1911;53.768;11.474;2022-08-01T14:40:43;9.13;;;3.00;;
3791;SDS011;1911;53.768;11.474;2022-08-01T14:43:12;6.90;;;2.50;;
3791;SDS011;1911;53.768;11.474;2022-08-01T14:45:38;15.00;;;3.50;;
3791;SDS011;1911;53.768;11.474;2022-08-01T14:48:04;8.03;;;2.63;;
3791;SDS011;1911;53.768;11.474;2022-08-01T14:50:30;6.27;;;2.93;;
3791;SDS011;1911;53.768;11.474;2022-08-01T14:52:55;5.30;;;2.57;;
3791;SDS011;1911;53.768;11.474;2022-08-01T14:55:21;9.93;;;3.10;;
3791;SDS011;1911;53.768;11.474;2022-08-01T14:57:50;9.33;;;3.30;;
3791;SDS011;1911;53.768;11.474;2022-08-01T15:00:16;9.70;;;2.37;;
3791;SDS011;1911;53.768;11.474;2022-08-01T15:02:42;9.23;;;2.70;;
3791;SDS011;1911;53.768;11.474;2022-08-01T15:05:08;5.50;;;2.53;;
3791;SDS011;1911;53.768;11.474;2022-08-01T15:07:34;10.47;;;2.43;;
3791;SDS011;1911;53.768;11.474;2022-08-01T15:10:01;6.80;;;2.63;;
3791;SDS011;1911;53.768;11.474;2022-08-01T15:12:28;6.20;;;2.23;;
3791;SDS011;1911;53.768;11.474;2022-08-01T15:14:54;10.73;;;3.43;;
3791;SDS011;1911;53.768;11.474;2022-08-01T15:17:29;4.60;;;2.33;;
3791;SDS011;1911;53.768;11.474;2022-08-01T15:20:00;5.03;;;3.10;;
3791;SDS011;1911;53.768;11.474;2022-08-01T15:22:31;10.27;;;2.80;;
3791;SDS011;1911;53.768;11.474;2022-08-01T15:24:58;8.10;;;2.40;;
3791;SDS011;1911;53.768;11.474;2022-08-01T15:27:26;8.40;;;2.67;;
3791;SDS011;1911;53.768;11.474;2022-08-01T15:29:52;5.67;;;2.37;;
3791;SDS011;1911;53.768;11.474;2022-08-01T15:32:18;4.90;;;1.90;;
3791;SDS011;1911;53.768;11.474;2022-08-01T15:34:44;8.00;;;3.10;;
3791;SDS011;1911;53.768;11.474;2022-08-01T15:37:10;9.83;;;3.30;;
3791;SDS011;1911;53.768;11.474;2022-08-01T15:39:37;7.43;;;3.07;;
3791;SDS011;1911;53.768;11.474;2022-08-01T15:42:10;4.83;;;2.20;;
3791;SDS011;1911;53.768;11.474;2022-08-01T15:44:40;14.43;;;3.20;;
3791;SDS011;1911;53.768;11.474;2022-08-01T15:47:06;6.83;;;2.60;;
3791;SDS011;1911;53.768;11.474;2022-08-01T15:49:32;7.20;;;2.47;;
3791;SDS011;1911;53.768;11.474;2022-08-01T15:52:00;8.77;;;2.77;;
3791;SDS011;1911;53.768;11.474;2022-08-01T15:54:27;7.80;;;2.87;;
3791;SDS011;1911;53.768;11.474;2022-08-01T15:56:53;11.27;;;3.10;;
3791;SDS011;1911;53.768;11.474;2022-08-01T15:59:18;8.10;;;2.73;;
3791;SDS011;1911;53.768;11.474;2022-08-01T16:01:44;11.40;;;2.87;;
3791;SDS011;1911;53.768;11.474;2022-08-01T16:04:10;5.40;;;2.80;;
3791;SDS011;1911;53.768;11.474;2022-08-01T16:06:36;9.53;;;3.13;;
3791;SDS011;1911;53.768;11.474;2022-08-01T16:09:03;8.50;;;3.47;;
3791;SDS011;1911;53.768;11.474;2022-08-01T16:11:29;13.87;;;3.87;;
3791;SDS011;1911;53.768;11.474;2022-08-01T16:13:55;11.80;;;2.60;;
3791;SDS011;1911;53.768;11.474;2022-08-01T16:16:22;9.20;;;2.47;;
3791;SDS011;1911;53.768;11.474;2022-08-01T16:18:48;6.17;;;3.97;;
3791;SDS011;1911;53.768;11.474;2022-08-01T16:21:14;10.23;;;2.07;;
3791;SDS011;1911;53.768;11.474;2022-08-01T16:23:40;6.87;;;2.80;;
3791;SDS011;1911;53.768;11.474;2022-08-01T16:26:07;15.47;;;3.80;;
3791;SDS011;1911;53.768;11.474;2022-08-01T16:28:33;10.80;;;2.87;;
3791;SDS011;1911;53.768;11.474;2022-08-01T16:31:00;8.70;;;3.00;;
3791;SDS011;1911;53.768;11.474;2022-08-01T16:33:26;5.90;;;2.60;;
3791;SDS011;1911;53.768;11.474;2022-08-01T16:35:51;7.30;;;3.00;;
3791;SDS011;1911;53.768;11.474;2022-08-01T16:38:17;5.60;;;2.10;;
3791;SDS011;1911;53.768;11.474;2022-08-01T16:40:45;5.73;;;2.53;;
3791;SDS011;1911;53.768;11.474;2022-08-01T16:43:12;8.67;;;2.70;;
3791;SDS011;1911;53.768;11.474;2022-08-01T16:45:42;7.80;;;2.90;;
3791;SDS011;1911;53.768;11.474;2022-08-01T16:48:09;10.10;;;3.13;;
3791;SDS011;1911;53.768;11.474;2022-08-01T16:50:35;7.53;;;2.90;;
3791;SDS011;1911;53.768;11.474;2022-08-01T16:53:02;4.80;;;2.20;;
3791;SDS011;1911;53.768;11.474;2022-08-01T16:55:28;12.27;;;2.67;;
3791;SDS011;1911;53.768;11.474;2022-08-01T16:57:54;9.63;;;2.93;;
3791;SDS011;1911;53.768;11.474;2022-08-01T17:00:21;12.90;;;3.10;;
3791;SDS011;1911;53.768;11.474;2022-08-01T17:02:50;8.67;;;3.00;;
3791;SDS011;1911;53.768;11.474;2022-08-01T17:05:15;9.27;;;2.60;;
3791;SDS011;1911;53.768;11.474;2022-08-01T17:07:41;7.70;;;2.53;;
3791;SDS011;1911;53.768;11.474;2022-08-01T17:10:07;14.73;;;2.93;;
3791;SDS011;1911;53.768;11.474;2022-08-01T17:12:34;15.87;;;3.00;;
3791;SDS011;1911;53.768;11.474;2022-08-01T17:15:00;5.10;;;2.40;;
3791;SDS011;1911;53.768;11.474;2022-08-01T17:17:26;10.30;;;3.30;;
3791;SDS011;1911;53.768;11.474;2022-08-01T17:19:52;8.20;;;2.50;;
3791;SDS011;1911;53.768;11.474;2022-08-01T17:22:18;10.83;;;3.10;;
3791;SDS011;1911;53.768;11.474;2022-08-01T17:24:44;4.93;;;2.27;;
3791;SDS011;1911;53.768;11.474;2022-08-01T17:27:11;11.73;;;2.77;;
3791;SDS011;1911;53.768;11.474;2022-08-01T17:36:51;6.40;;;1.93;;
3791;SDS011;1911;53.768;11.474;2022-08-01T17:39:21;7.00;;;2.37;;
3791;SDS011;1911;53.768;11.474;2022-08-01T17:44:42;8.20;;;3.10;;
3791;SDS011;1911;53.768;11.474;2022-08-01T17:47:17;11.40;;;2.33;;
3791;SDS011;1911;53.768;11.474;2022-08-01T17:52:43;8.20;;;3.07;;
3791;SDS011;1911;53.768;11.474;2022-08-01T17:55:10;7.83;;;2.73;;
3791;SDS011;1911;53.768;11.474;2022-08-01T17:57:36;7.57;;;2.70;;
3791;SDS011;1911;53.768;11.474;2022-08-01T18:00:03;6.80;;;2.27;;
3791;SDS011;1911;53.768;11.474;2022-08-01T18:02:29;7.70;;;2.90;;
3791;SDS011;1911;53.768;11.474;2022-08-01T18:05:06;7.30;;;2.80;;
3791;SDS011;1911;53.768;11.474;2022-08-01T18:07:34;5.63;;;2.67;;
3791;SDS011;1911;53.768;11.474;2022-08-01T18:10:07;6.17;;;2.73;;
3791;SDS011;1911;53.768;11.474;2022-08-01T18:12:33;14.20;;;2.60;;
3791;SDS011;1911;53.768;11.474;2022-08-01T18:14:59;6.63;;;2.90;;
3791;SDS011;1911;53.768;11.474;2022-08-01T18:17:34;7.20;;;2.60;;
3791;SDS011;1911;53.768;11.474;2022-08-01T18:26:30;6.43;;;2.20;;
3791;SDS011;1911;53.768;11.474;2022-08-01T18:29:01;4.97;;;3.17;;
3791;SDS011;1911;53.768;11.474;2022-08-01T18:50:26;7.17;;;2.80;;
3791;SDS011;1911;53.768;11.474;2022-08-01T18:53:06;6.93;;;3.00;;
3791;SDS011;1911;53.768;11.474;2022-08-01T18:56:27;7.83;;;3.27;;
3791;SDS011;1911;53.768;11.474;2022-08-01T18:59:13;8.63;;;3.33;;
3791;SDS011;1911;53.768;11.474;2022-08-01T19:01:58;9.40;;;3.40;;
3791;SDS011;1911;53.768;11.474;2022-08-01T19:04:27;5.50;;;3.60;;
3791;SDS011;1911;53.768;11.474;2022-08-01T19:14:01;7.90;;;3.60;;
3791;SDS011;1911;53.768;11.474;2022-08-01T19:19:40;9.63;;;3.50;;
3791;SDS011;1911;53.768;11.474;2022-08-01T19:22:06;8.50;;;4.00;;
3791;SDS011;1911;53.768;11.474;2022-08-01T19:24:37;9.80;;;3.37;;
3791;SDS011;1911;53.768;11.474;2022-08-01T19:27:28;9.67;;;3.43;;
3791;SDS011;1911;53.768;11.474;2022-08-01T19:42:27;17.70;;;4.03;;
3791;SDS011;1911;53.768;11.474;2022-08-01T19:49:20;10.47;;;3.87;;
3791;SDS011;1911;53.768;11.474;2022-08-01T19:51:49;8.87;;;4.37;;
3791;SDS011;1911;53.768;11.474;2022-08-01T19:58:24;12.07;;;4.40;;
3791;SDS011;1911;53.768;11.474;2022-08-01T20:01:00;7.03;;;4.87;;
3791;SDS011;1911;53.768;11.474;2022-08-01T20:03:35;6.93;;;3.87;;
3791;SDS011;1911;53.768;11.474;2022-08-01T20:10:07;9.70;;;3.43;;
3791;SDS011;1911;53.768;11.474;2022-08-01T20:12:41;11.90;;;4.13;;
3791;SDS011;1911;53.768;11.474;2022-08-01T20:15:15;13.80;;;4.87;;
3791;SDS011;1911;53.768;11.474;2022-08-01T20:18:01;11.03;;;3.70;;
3791;SDS011;1911;53.768;11.474;2022-08-01T20:20:47;10.30;;;3.87;;
3791;SDS011;1911;53.768;11.474;2022-08-01T20:23:17;9.57;;;3.37;;
3791;SDS011;1911;53.768;11.474;2022-08-01T20:25:49;8.03;;;3.53;;
3791;SDS011;1911;53.768;11.474;2022-08-01T20:28:36;11.60;;;4.43;;
3791;SDS011;1911;53.768;11.474;2022-08-01T20:34:27;13.83;;;4.00;;
3791;SDS011;1911;53.768;11.474;2022-08-01T20:37:29;12.27;;;3.67;;
3791;SDS011;1911;53.768;11.474;2022-08-01T20:40:09;11.10;;;3.13;;
3791;SDS011;1911;53.768;11.474;2022-08-01T21:02:53;8.10;;;2.30;;
3791;SDS011;1911;53.768;11.474;2022-08-01T21:08:01;7.40;;;3.53;;
3791;SDS011;1911;53.768;11.474;2022-08-01T21:10:28;9.43;;;2.97;;
3791;SDS011;1911;53.768;11.474;2022-08-01T21:18:18;6.33;;;2.57;;
3791;SDS011;1911;53.768;11.474;2022-08-01T21:21:08;11.27;;;2.80;;
3791;SDS011;1911;53.768;11.474;2022-08-01T21:26:19;7.23;;;2.77;;
3791;SDS011;1911;53.768;11.474;2022-08-01T21:28:46;9.90;;;2.67;;
3791;SDS011;1911;53.768;11.474;2022-08-01T21:31:13;6.40;;;2.20;;
3791;SDS011;1911;53.768;11.474;2022-08-01T21:33:40;7.13;;;3.17;;
3791;SDS011;1911;53.768;11.474;2022-08-01T21:36:06;9.47;;;2.93;;
3791;SDS011;1911;53.768;11.474;2022-08-01T21:38:35;5.77;;;2.50;;
3791;SDS011;1911;53.768;11.474;2022-08-01T21:41:04;7.33;;;3.27;;
3791;SDS011;1911;53.768;11.474;2022-08-01T21:43:32;6.70;;;2.80;;
3791;SDS011;1911;53.768;11.474;2022-08-01T21:45:59;9.40;;;2.40;;
3791;SDS011;1911;53.768;11.474;2022-08-01T21:48:25;6.03;;;2.60;;
3791;SDS011;1911;53.768;11.474;2022-08-01T21:53:40;6.73;;;2.23;;
3791;SDS011;1911;53.768;11.474;2022-08-01T21:56:29;7.63;;;2.20;;
3791;SDS011;1911;53.768;11.474;2022-08-01T22:01:44;6.27;;;1.87;;
3791;SDS011;1911;53.768;11.474;2022-08-01T22:04:20;6.03;;;2.17;;
3791;SDS011;1911;53.768;11.474;2022-08-01T22:06:57;8.33;;;2.23;;
3791;SDS011;1911;53.768;11.474;2022-08-01T22:09:24;8.63;;;2.37;;
3791;SDS011;1911;53.768;11.474;2022-08-01T22:11:51;11.10;;;3.83;;
3791;SDS011;1911;53.768;11.474;2022-08-01T22:14:17;7.37;;;2.27;;
3791;SDS011;1911;53.768;11.474;2022-08-01T22:16:46;7.87;;;2.00;;
3791;SDS011;1911;53.768;11.474;2022-08-01T22:19:13;13.17;;;3.70;;
3791;SDS011;1911;53.768;11.474;2022-08-01T22:21:40;4.40;;;1.80;;
3791;SDS011;1911;53.768;11.474;2022-08-01T22:24:06;6.60;;;2.40;;
3791;SDS011;1911;53.768;11.474;2022-08-01T22:26:32;5.70;;;2.40;;
3791;SDS011;1911;53.768;11.474;2022-08-01T22:29:01;7.03;;;1.87;;
3791;SDS011;1911;53.768;11.474;2022-08-01T22:31:28;8.50;;;2.50;;
3791;SDS011;1911;53.768;11.474;2022-08-01T22:33:53;7.27;;;2.50;;
3791;SDS011;1911;53.768;11.474;2022-08-01T22:36:20;13.10;;;2.03;;
3791;SDS011;1911;53.768;11.474;2022-08-01T22:38:45;8.20;;;2.30;;
3791;SDS011;1911;53.768;11.474;2022-08-01T22:41:18;8.27;;;4.10;;
3791;SDS011;1911;53.768;11.474;2022-08-01T22:44:00;7.23;;;2.63;;
3791;SDS011;1911;53.768;11.474;2022-08-01T22:49:26;6.90;;;2.77;;
3791;SDS011;1911;53.768;11.474;2022-08-01T22:52:04;10.90;;;3.83;;
3791;SDS011;1911;53.768;11.474;2022-08-01T22:54:36;9.93;;;3.00;;
3791;SDS011;1911;53.768;11.474;2022-08-01T22:57:04;5.27;;;2.40;;
3791;SDS011;1911;53.768;11.474;2022-08-01T22:59:41;9.00;;;2.60;;
3791;SDS011;1911;53.768;11.474;2022-08-01T23:02:13;10.97;;;2.53;;
3791;SDS011;1911;53.768;11.474;2022-08-01T23:04:47;10.57;;;3.23;;
3791;SDS011;1911;53.768;11.474;2022-08-01T23:07:21;7.20;;;2.20;;
3791;SDS011;1911;53.768;11.474;2022-08-01T23:09:52;9.37;;;2.67;;
3791;SDS011;1911;53.768;11.474;2022-08-01T23:12:24;9.60;;;2.60;;
3791;SDS011;1911;53.768;11.474;2022-08-01T23:14:54;6.27;;;2.23;;